Huvudsida
METAR-TAF:

METAR-TAF

Flygplatser :

Ataq, Jemen

latitud: 14-31N, longitud: 046-51E, höjd: 1067 m

Aktuellt väderrapport

Denna rapport gjordes för 2 timmar och 48 minuter sedan, klockan 15:00 UTC
Vind 10 kt från syd/sydost
Temperatur 36°C
Fuktighet 19%
Tryck 1012 hPa
Sikt 10 km eller mer
Få moln på en höjd av 3000 ft

METAR: OYAT 141500Z 15010KT 9999 FEW030 36/09 Q1012

Tid: 20:48 (17:48 UTC)


TAF: saknas

Aktuella väderrapporter och prognoser från 4000 flygplatser (METAR- och TAF-rapporter).

De tillgängliga stationerna syns som gula och röda prickar på kartan.

För musen över prickarna för att se namnen på stationerna.

Klicka sedan för att få väderrapporter och prognoser.

För att ändra kartan: Klicka på de gröna knapparna med ett svart kors på för att zooma in; den gröna knappen med ett streck på för att zooma ut; eller på de gröna pilarna för angränsande kartor.


METAR-TAF: